Time;durP1;ratioP1;P1;durP2;ratioP2;P2;SDS_P1;SDS_P2;PMS_P1;PMS_P2;Temp;Humidity;BMP_temperature;BMP_pressure;BME280_temperature;BME280_humidity;BME280_pressure;Samples;Min_cycle;Max_cycle;Signal;HPM_P1;HPM_P2
2023/08/20 00:00:16;;;;;;;21.40;14.73;;;;;;;22.55;64.87;100236.97;5094813;28;20024;-65
2023/08/20 00:02:45;;;;;;;22.08;14.88;;;;;;;22.57;65.07;100238.47;5095259;28;20030;-66
2023/08/20 00:05:11;;;;;;;24.35;15.15;;;;;;;22.56;64.88;100242.25;5094982;28;20040;-65
2023/08/20 00:07:37;;;;;;;23.13;14.02;;;;;;;22.54;65.65;100238.00;5095236;28;20035;-65
2023/08/20 00:10:04;;;;;;;21.65;15.23;;;;;;;22.50;65.61;100230.19;5094987;28;20105;-65
2023/08/20 00:12:31;;;;;;;27.08;15.23;;;;;;;22.50;65.75;100224.75;5094226;28;20040;-65
2023/08/20 00:15:06;;;;;;;19.20;14.55;;;;;;;22.51;65.48;100223.72;5095081;28;20047;-66
2023/08/20 00:17:36;;;;;;;20.02;14.65;;;;;;;22.51;65.37;100228.31;5094482;28;20036;-65
2023/08/20 00:20:12;;;;;;;18.55;14.82;;;;;;;22.49;65.44;100223.06;5094866;28;20469;-65
2023/08/20 00:22:39;;;;;;;18.90;15.25;;;;;;;22.50;65.54;100221.16;5094913;28;20032;-65
2023/08/20 00:25:05;;;;;;;21.45;15.30;;;;;;;22.48;64.78;100226.81;5094304;28;20024;-66
2023/08/20 00:27:32;;;;;;;22.88;15.30;;;;;;;22.42;64.56;100210.34;5094287;28;20036;-64
2023/08/20 00:29:58;;;;;;;19.60;14.77;;;;;;;22.43;65.13;100201.13;5077381;28;20030;-65
2023/08/20 00:32:23;;;;;;;24.25;14.90;;;;;;;22.37;65.51;100197.28;5094277;28;20032;-64
2023/08/20 00:34:49;;;;;;;21.65;15.38;;;;;;;22.36;65.89;100206.50;5094599;28;20082;-65
2023/08/20 00:37:14;;;;;;;18.40;13.82;;;;;;;22.33;66.23;100202.28;5094200;28;20464;-65
2023/08/20 00:39:40;;;;;;;24.95;15.18;;;;;;;22.32;66.43;100199.75;5093914;28;20028;-66
2023/08/20 00:42:07;;;;;;;19.88;15.10;;;;;;;22.27;67.12;100196.75;5094676;28;20091;-64
2023/08/20 00:44:33;;;;;;;20.98;14.80;;;;;;;22.04;66.72;100160.38;5094480;28;20024;-64
2023/08/20 00:47:00;;;;;;;24.13;14.80;;;;;;;22.25;66.95;100190.66;5094910;28;20027;-65
2023/08/20 00:49:26;;;;;;;22.88;14.75;;;;;;;22.10;66.40;100160.69;5094722;28;20107;-65
2023/08/20 00:51:53;;;;;;;25.00;16.13;;;;;;;22.26;66.36;100189.59;5094110;28;20117;-66
2023/08/20 00:54:20;;;;;;;26.35;15.70;;;;;;;22.25;65.73;100187.91;5093904;28;20039;-65
2023/08/20 00:56:48;;;;;;;23.25;15.70;;;;;;;22.25;65.62;100177.00;5094316;28;20173;-66
2023/08/20 00:59:14;;;;;;;24.30;16.25;;;;;;;22.23;65.83;100169.88;5093792;28;20077;-66
2023/08/20 01:01:40;;;;;;;21.30;14.93;;;;;;;22.23;66.94;100180.78;5093635;28;20071;-65
2023/08/20 01:04:05;;;;;;;25.83;15.10;;;;;;;22.19;67.42;100176.75;5094178;28;20115;-65
2023/08/20 01:06:46;;;;;;;24.52;14.88;;;;;;;22.16;67.86;100165.38;5094356;28;20035;-62
2023/08/20 01:10:01;;;;;;;28.00;14.98;;;;;;;22.28;68.42;100182.06;5093662;28;20040;-66
2023/08/20 01:12:26;;;;;;;27.73;15.57;;;;;;;22.15;68.38;100180.03;4982957;28;20047;-65
2023/08/20 01:14:52;;;;;;;24.38;15.40;;;;;;;22.11;68.46;100159.66;5053619;28;20368;-65
2023/08/20 01:17:17;;;;;;;28.02;14.90;;;;;;;22.10;68.59;100166.97;5053908;28;20495;-67
2023/08/20 01:19:43;;;;;;;25.73;15.70;;;;;;;22.08;68.89;100166.31;5052405;28;20119;-65
2023/08/20 01:22:35;;;;;;;30.65;14.98;;;;;;;22.18;68.88;100163.28;5053556;28;20431;-65
2023/08/20 01:25:17;;;;;;;26.63;14.95;;;;;;;22.16;68.83;100179.84;5052888;28;20395;-66
2023/08/20 01:28:22;;;;;;;29.42;15.48;;;;;;;22.16;69.19;100173.53;5053394;28;20045;-65
2023/08/20 01:30:48;;;;;;;26.63;15.75;;;;;;;22.07;69.60;100175.53;5053164;28;20379;-65
2023/08/20 01:33:14;;;;;;;25.30;15.38;;;;;;;22.02;69.42;100161.63;5053375;28;20067;-65
2023/08/20 01:35:40;;;;;;;35.10;16.30;;;;;;;22.12;69.16;100161.34;5053023;28;20025;-65
2023/08/20 01:38:06;;;;;;;28.40;15.77;;;;;;;22.16;68.94;100157.19;5053016;28;20471;-65
2023/08/20 01:40:31;;;;;;;28.13;16.20;;;;;;;22.18;69.55;100160.56;5053412;28;20451;-64
2023/08/20 01:42:57;;;;;;;36.53;16.05;;;;;;;22.20;68.78;100162.06;5052820;28;20120;-64
2023/08/20 01:45:23;;;;;;;32.45;15.88;;;;;;;22.22;69.05;100162.72;5053010;28;20554;-65
2023/08/20 01:47:48;;;;;;;31.02;15.82;;;;;;;22.26;68.89;100165.06;5052859;28;20060;-65
2023/08/20 01:50:14;;;;;;;35.05;15.05;;;;;;;21.78;68.79;100088.16;5053011;28;20028;-65
2023/08/20 01:52:40;;;;;;;25.35;15.77;;;;;;;22.32;68.75;100172.47;5052152;28;20032;-66
2023/08/20 01:55:06;;;;;;;33.00;15.02;;;;;;;22.14;69.24;100149.19;5052979;28;20424;-63
2023/08/20 01:57:32;;;;;;;33.90;15.25;;;;;;;22.24;69.72;100173.41;5052511;28;20037;-64
2023/08/20 01:59:58;;;;;;;32.28;15.75;;;;;;;22.08;70.27;100158.13;5052265;28;20044;-64
2023/08/20 02:02:24;;;;;;;42.20;15.95;;;;;;;22.13;70.79;100172.03;5052906;28;20025;-66
2023/08/20 02:04:49;;;;;;;37.85;16.50;;;;;;;22.21;70.90;100182.84;5052751;28;20036;-66
2023/08/20 02:07:15;;;;;;;35.15;16.05;;;;;;;22.17;71.38;100181.53;5052467;28;20033;-64
2023/08/20 02:09:40;;;;;;;38.58;16.35;;;;;;;22.14;71.50;100183.81;5052875;28;20355;-66
2023/08/20 02:12:07;;;;;;;41.45;15.80;;;;;;;22.12;71.34;100183.16;5091647;28;20523;-65
2023/08/20 02:14:34;;;;;;;39.97;15.68;;;;;;;22.13;71.88;100182.13;5092442;28;20047;-65
2023/08/20 02:17:04;;;;;;;36.15;15.55;;;;;;;22.15;71.87;100189.03;5092947;28;20020;-64
2023/08/20 02:19:29;;;;;;;29.65;15.95;;;;;;;22.06;72.03;100177.44;5091805;28;20396;-65
2023/08/20 02:21:55;;;;;;;35.00;15.00;;;;;;;22.11;71.73;100187.75;5092647;28;20038;-66
2023/08/20 02:24:20;;;;;;;28.83;15.63;;;;;;;21.89;71.58;100154.97;5092530;28;20020;-65
2023/08/20 02:26:46;;;;;;;21.90;14.82;;;;;;;22.07;71.21;100195.47;5092681;28;20036;-65
2023/08/20 02:29:11;;;;;;;22.85;14.38;;;;;;;22.02;71.04;100173.38;5092577;28;20024;-66
2023/08/20 02:31:37;;;;;;;23.45;14.38;;;;;;;22.00;70.89;100180.06;5092706;28;20402;-63
2023/08/20 02:34:03;;;;;;;29.40;15.10;;;;;;;22.07;71.30;100184.56;5093125;28;20056;-66
2023/08/20 02:36:28;;;;;;;24.30;14.73;;;;;;;22.08;70.56;100183.53;5095015;28;20028;-65
2023/08/20 02:38:54;;;;;;;26.25;14.32;;;;;;;22.07;70.83;100172.81;5096205;28;20085;-64
2023/08/20 02:41:19;;;;;;;19.08;13.88;;;;;;;22.04;70.62;100168.56;5096837;28;20406;-64
2023/08/20 02:43:45;;;;;;;23.52;14.73;;;;;;;22.06;70.23;100171.13;5096818;28;20028;-64
2023/08/20 02:46:10;;;;;;;22.45;14.73;;;;;;;21.87;69.51;100137.97;5096550;28;20031;-65
2023/08/20 02:48:36;;;;;;;25.17;13.77;;;;;;;22.08;68.79;100160.88;5096827;28;20024;-64
2023/08/20 02:51:02;;;;;;;20.23;14.15;;;;;;;22.11;68.67;100167.81;5097027;28;20032;-66
2023/08/20 02:53:28;;;;;;;21.45;14.88;;;;;;;22.15;68.53;100171.84;5096655;28;20024;-65
2023/08/20 02:55:54;;;;;;;22.63;14.90;;;;;;;22.20;68.26;100172.13;5096122;28;20482;-65
2023/08/20 02:58:20;;;;;;;24.67;14.30;;;;;;;22.28;68.25;100165.72;5096699;28;20445;-65
2023/08/20 03:00:46;;;;;;;24.02;15.35;;;;;;;22.40;67.73;100174.22;5096003;28;20107;-65
2023/08/20 03:03:12;;;;;;;22.70;14.55;;;;;;;22.53;66.93;100179.84;5096409;28;20027;-65
2023/08/20 03:05:38;;;;;;;21.45;15.15;;;;;;;22.72;66.33;100172.06;5096499;28;20039;-66
2023/08/20 03:08:04;;;;;;;21.30;15.88;;;;;;;22.94;65.15;100170.16;5096659;28;20028;-65
2023/08/20 03:10:31;;;;;;;21.45;16.02;;;;;;;23.13;64.88;100178.69;5095627;28;20366;-64
2023/08/20 03:13:02;;;;;;;25.08;16.55;;;;;;;23.21;64.39;100175.84;5095546;28;20425;-66
2023/08/20 03:15:30;;;;;;;19.00;16.35;;;;;;;23.44;63.42;100200.19;5096150;28;20032;-65
2023/08/20 03:17:56;;;;;;;20.67;16.80;;;;;;;23.18;63.64;100163.41;5096059;28;20075;-64
2023/08/20 03:20:22;;;;;;;20.90;16.83;;;;;;;23.39;63.22;100196.34;5095368;28;20539;-65
2023/08/20 03:22:48;;;;;;;21.30;16.33;;;;;;;23.31;63.94;100203.66;5095498;28;20034;-65
2023/08/20 03:25:13;;;;;;;19.02;15.52;;;;;;;23.17;63.77;100202.69;5095698;28;20028;-64
2023/08/20 03:27:39;;;;;;;15.40;13.80;;;;;;;23.15;64.45;100220.31;5096166;28;20070;-64
2023/08/20 03:30:06;;;;;;;16.40;13.70;;;;;;;22.91;65.54;100198.69;5096408;28;20052;-66
2023/08/20 03:32:32;;;;;;;15.45;13.50;;;;;;;22.82;66.00;100208.06;5095755;28;20023;-64
2023/08/20 03:34:59;;;;;;;15.35;13.02;;;;;;;22.64;67.68;100219.41;5095755;28;20028;-66
2023/08/20 03:37:25;;;;;;;14.57;12.65;;;;;;;22.47;68.50;100225.13;5095053;28;20037;-65
2023/08/20 03:39:51;;;;;;;15.48;12.20;;;;;;;22.32;68.74;100232.47;5095254;28;20028;-65
2023/08/20 03:42:17;;;;;;;15.70;11.85;;;;;;;22.26;69.58;100244.16;5095030;28;20024;-65
2023/08/20 03:44:42;;;;;;;15.55;12.98;;;;;;;22.22;69.33;100254.59;5095088;28;20115;-66
2023/08/20 03:47:08;;;;;;;18.05;13.68;;;;;;;21.97;70.56;100246.72;5094657;28;20020;-66
2023/08/20 03:49:34;;;;;;;19.50;14.10;;;;;;;21.85;71.48;100238.16;5095307;28;20032;-65
2023/08/20 03:52:01;;;;;;;15.13;13.10;;;;;;;21.67;71.92;100235.81;5095134;28;20028;-64
2023/08/20 03:54:28;;;;;;;15.55;13.40;;;;;;;21.61;72.46;100237.38;5095182;28;20028;-66
2023/08/20 03:56:54;;;;;;;16.10;13.38;;;;;;;21.43;72.74;100210.50;5094481;28;20043;-67
2023/08/20 03:59:20;;;;;;;16.63;13.95;;;;;;;21.13;73.28;100157.84;5094921;28;20043;-66
2023/08/20 04:01:45;;;;;;;18.02;14.18;;;;;;;21.21;74.65;100165.94;5094553;28;20435;-65
2023/08/20 04:04:11;;;;;;;19.45;14.85;;;;;;;21.18;75.37;100160.84;5094566;28;20458;-66
2023/08/20 04:06:36;;;;;;;17.42;14.60;;;;;;;21.12;75.29;100151.56;5095082;28;20128;-67
2023/08/20 04:09:02;;;;;;;19.90;16.58;;;;;;;21.01;75.68;100114.75;5093997;28;20059;-66
2023/08/20 04:11:28;;;;;;;18.23;15.68;;;;;;;20.97;75.89;100110.69;5094712;28;20420;-65
2023/08/20 04:13:53;;;;;;;18.08;16.15;;;;;;;20.93;76.25;100095.78;5094687;28;20487;-65
2023/08/20 04:16:18;;;;;;;22.58;16.77;;;;;;;20.99;76.29;100086.88;5093432;28;20056;-65
2023/08/20 04:18:44;;;;;;;18.10;15.57;;;;;;;21.00;76.24;100083.13;5094271;28;20035;-66
2023/08/20 04:21:09;;;;;;;18.73;16.48;;;;;;;21.00;76.65;100071.38;5095272;28;20126;-66
2023/08/20 04:23:35;;;;;;;18.65;15.98;;;;;;;21.00;76.82;100082.28;5093942;28;20054;-64
2023/08/20 04:26:00;;;;;;;22.05;17.48;;;;;;;21.02;76.75;100096.53;5092874;28;20365;-65
2023/08/20 04:28:26;;;;;;;19.83;16.48;;;;;;;21.04;76.95;100114.38;5094707;28;20032;-64
2023/08/20 04:30:55;;;;;;;18.35;16.25;;;;;;;21.13;77.34;100117.00;5094415;28;20028;-66
2023/08/20 04:33:20;;;;;;;20.10;17.08;;;;;;;21.10;77.32;100128.28;5094224;28;20028;-63
2023/08/20 04:35:50;;;;;;;19.08;17.00;;;;;;;21.15;76.93;100147.63;5094079;28;20031;-61
2023/08/20 04:38:15;;;;;;;19.05;17.05;;;;;;;21.15;76.60;100125.84;5092860;28;20023;-63
2023/08/20 04:40:41;;;;;;;19.13;16.88;;;;;;;21.22;76.75;100134.97;5093272;28;20040;-58
2023/08/20 04:43:06;;;;;;;20.30;16.10;;;;;;;21.27;75.86;100126.22;5093845;28;20058;-60
2023/08/20 04:45:32;;;;;;;18.15;16.17;;;;;;;21.41;75.50;100154.50;5093760;28;20442;-60
2023/08/20 04:47:59;;;;;;;18.25;16.33;;;;;;;21.30;75.16;100114.97;5094018;28;20024;-63
2023/08/20 04:50:25;;;;;;;18.73;16.77;;;;;;;21.59;74.73;100144.06;5093769;28;20443;-60
2023/08/20 04:52:51;;;;;;;18.85;15.57;;;;;;;21.73;73.97;100152.47;5092523;28;20047;-61
2023/08/20 04:55:16;;;;;;;18.67;15.13;;;;;;;21.81;72.94;100149.63;5094116;28;20430;-60
2023/08/20 04:57:42;;;;;;;18.35;14.50;;;;;;;21.87;72.71;100145.31;5094395;28;20114;-61
2023/08/20 05:00:09;;;;;;;15.00;13.35;;;;;;;21.99;71.33;100145.66;5093456;28;20166;-62
2023/08/20 05:02:35;;;;;;;17.50;12.60;;;;;;;22.15;70.63;100144.59;5093097;28;20024;-61
2023/08/20 05:05:02;;;;;;;15.63;12.18;;;;;;;22.37;69.67;100138.13;5090256;28;20038;-61
2023/08/20 05:07:29;;;;;;;15.13;12.73;;;;;;;22.67;68.50;100130.88;5093690;28;20036;-60
2023/08/20 05:09:55;;;;;;;15.15;13.50;;;;;;;22.97;67.64;100137.00;5092976;28;20031;-60
2023/08/20 05:12:21;;;;;;;17.13;14.50;;;;;;;23.08;66.68;100122.78;5093460;28;20032;-60
2023/08/20 05:14:46;;;;;;;16.67;13.60;;;;;;;23.17;66.51;100126.22;5093741;28;20043;-61
2023/08/20 05:17:12;;;;;;;16.67;13.52;;;;;;;23.25;66.37;100127.09;5093682;28;20130;-62
2023/08/20 05:19:37;;;;;;;17.13;14.18;;;;;;;23.39;66.39;100115.25;5093078;28;20072;-60
2023/08/20 05:22:03;;;;;;;15.20;13.70;;;;;;;23.73;65.22;100118.97;5091811;28;20043;-61
2023/08/20 05:24:28;;;;;;;14.63;12.88;;;;;;;24.17;63.34;100113.28;5092969;28;20050;-61
2023/08/20 05:27:14;;;;;;;15.88;13.50;;;;;;;24.80;61.19;100118.44;5093266;28;20118;-63
2023/08/20 05:29:40;;;;;;;15.75;13.57;;;;;;;25.03;59.77;100125.38;5092362;28;20052;-62
2023/08/20 05:32:07;;;;;;;14.50;13.00;;;;;;;24.90;59.91;100096.09;5093063;28;20036;-62
2023/08/20 05:34:32;;;;;;;16.80;12.98;;;;;;;25.03;59.68;100106.19;5093415;28;20099;-62
2023/08/20 05:36:58;;;;;;;14.48;12.48;;;;;;;25.04;59.09;100112.53;5092875;28;20111;-62
2023/08/20 05:39:25;;;;;;;17.88;14.27;;;;;;;25.03;59.92;100119.91;5079329;28;20117;-59
2023/08/20 05:41:52;;;;;;;15.40;12.90;;;;;;;25.19;59.70;100121.34;5092866;28;20028;-61
2023/08/20 05:44:17;;;;;;;15.38;13.75;;;;;;;25.35;58.47;100098.16;5092894;28;20060;-62
2023/08/20 05:46:43;;;;;;;15.30;13.75;;;;;;;25.37;57.91;100098.78;5092877;28;20071;-59
2023/08/20 05:49:08;;;;;;;15.30;13.07;;;;;;;25.59;57.29;100098.53;5092331;28;20354;-62
2023/08/20 05:51:34;;;;;;;14.65;12.80;;;;;;;26.06;55.95;100086.47;5092549;28;20071;-58
2023/08/20 05:53:59;;;;;;;16.13;13.70;;;;;;;26.89;53.75;100090.16;5092532;28;20032;-58
2023/08/20 05:56:25;;;;;;;15.60;13.13;;;;;;;27.64;52.04;100091.03;5092564;28;20399;-56
2023/08/20 05:58:51;;;;;;;13.90;12.43;;;;;;;28.05;50.01;100082.25;5092560;28;20358;-61
2023/08/20 06:01:16;;;;;;;14.07;12.52;;;;;;;28.58;48.88;100085.28;5093204;28;20032;-64
2023/08/20 06:03:42;;;;;;;13.35;11.98;;;;;;;29.15;47.28;100086.63;5092754;28;20031;-67
2023/08/20 06:06:07;;;;;;;13.05;10.98;;;;;;;30.23;44.25;100074.22;5092822;28;20771;-65
2023/08/20 06:08:33;;;;;;;12.90;10.60;;;;;;;31.73;40.76;100070.94;5092401;28;20143;-64
2023/08/20 06:10:59;;;;;;;11.35;9.40;;;;;;;33.05;38.17;100070.78;5092056;28;20056;-63
2023/08/20 06:13:24;;;;;;;9.90;8.88;;;;;;;33.39;37.04;100072.31;5075181;28;20047;-64
2023/08/20 06:15:50;;;;;;;11.57;9.63;;;;;;;34.69;35.35;100081.78;5091352;28;20047;-68
2023/08/20 06:18:15;;;;;;;8.43;7.68;;;;;;;36.54;32.11;100070.16;5085368;28;20362;-66
2023/08/20 06:20:41;;;;;;;9.90;8.32;;;;;;;37.65;30.06;100074.28;5092248;28;20024;-63
2023/08/20 06:23:07;;;;;;;8.57;7.57;;;;;;;38.75;28.09;100084.31;5072880;28;20094;-64
2023/08/20 06:25:32;;;;;;;13.55;8.20;;;;;;;39.34;27.18;100078.16;5084311;28;20032;-65
2023/08/20 06:27:58;;;;;;;9.55;7.90;;;;;;;40.19;25.90;100068.44;5090030;28;20525;-65
2023/08/20 06:30:23;;;;;;;9.40;8.05;;;;;;;41.17;24.68;100065.09;5090222;28;20098;-65
2023/08/20 06:32:49;;;;;;;9.50;8.02;;;;;;;41.67;23.63;100070.66;5090609;28;20052;-64
2023/08/20 06:35:14;;;;;;;8.75;7.88;;;;;;;41.69;23.97;100065.53;5090242;28;20028;-65
2023/08/20 06:37:40;;;;;;;8.43;7.63;;;;;;;41.50;23.70;100058.25;5089888;28;20043;-65
2023/08/20 06:40:07;;;;;;;8.68;7.82;;;;;;;41.51;23.63;100059.88;5090096;28;20147;-64
2023/08/20 06:42:32;;;;;;;8.60;7.78;;;;;;;41.01;24.40;100038.56;5090346;28;20028;-67
2023/08/20 06:44:58;;;;;;;11.25;7.22;;;;;;;40.58;24.71;100054.03;5073107;28;20077;-66
2023/08/20 06:47:23;;;;;;;11.32;7.43;;;;;;;39.84;25.39;100042.94;5091551;28;20040;-65
2023/08/20 06:49:50;;;;;;;9.68;6.90;;;;;;;39.43;25.79;100049.44;5092186;28;20052;-65
2023/08/20 06:52:16;;;;;;;9.63;7.03;;;;;;;39.33;25.80;100053.25;5092085;28;20032;-67
2023/08/20 06:54:42;;;;;;;8.23;7.40;;;;;;;39.46;25.97;100043.22;5091081;28;20365;-67
2023/08/20 06:57:07;;;;;;;7.63;6.88;;;;;;;39.85;25.54;100043.75;5091256;28;20024;-66
2023/08/20 06:59:33;;;;;;;10.38;7.10;;;;;;;40.13;25.06;100044.47;5091790;28;20081;-66
2023/08/20 07:01:58;;;;;;;9.60;7.15;;;;;;;40.77;24.25;100037.00;5089112;28;20056;-65
2023/08/20 07:04:24;;;;;;;8.18;7.38;;;;;;;41.55;23.57;100041.22;5091390;28;20040;-65
2023/08/20 07:06:51;;;;;;;11.15;8.27;;;;;;;42.52;22.63;100044.03;5091480;28;20093;-66
2023/08/20 07:09:16;;;;;;;9.15;7.90;;;;;;;43.06;21.71;100037.06;5091459;28;20027;-66
2023/08/20 07:11:42;;;;;;;12.55;7.75;;;;;;;43.26;21.27;100041.06;5091740;28;20048;-65
2023/08/20 07:14:07;;;;;;;7.60;6.53;;;;;;;44.15;20.40;100041.28;5091795;28;20350;-66
2023/08/20 07:16:33;;;;;;;11.60;5.90;;;;;;;44.95;19.46;100029.94;5091635;28;20043;-65
2023/08/20 07:18:58;;;;;;;8.13;6.25;;;;;;;46.20;18.01;100033.34;5091858;28;20020;-64
2023/08/20 07:21:24;;;;;;;8.85;5.40;;;;;;;47.51;16.25;100037.44;5092084;28;20074;-64
2023/08/20 07:23:49;;;;;;;6.65;5.35;;;;;;;48.90;15.42;100041.78;5094478;28;20031;-62
2023/08/20 07:26:15;;;;;;;7.07;4.72;;;;;;;50.19;14.01;100024.03;5094979;28;20089;-64
2023/08/20 07:28:56;;;;;;;5.45;4.93;;;;;;;50.83;13.63;100023.84;5094711;28;20031;-65
2023/08/20 07:31:32;;;;;;;7.40;5.28;;;;;;;51.54;12.93;100027.56;5095595;28;20024;-65
2023/08/20 07:33:59;;;;;;;5.30;4.90;;;;;;;51.54;13.24;100026.75;5095061;28;20448;-65
2023/08/20 07:36:25;;;;;;;7.10;5.35;;;;;;;51.35;13.04;100002.19;5095056;28;20387;-61
2023/08/20 07:38:52;;;;;;;9.50;5.50;;;;;;;51.37;12.90;100011.16;5094797;28;20020;-62
2023/08/20 07:41:19;;;;;;;5.93;4.80;;;;;;;51.32;13.05;99997.28;5095337;28;20028;-63
2023/08/20 07:43:46;;;;;;;6.43;5.20;;;;;;;51.93;12.77;100016.72;5084455;28;20077;-64
2023/08/20 07:46:12;;;;;;;7.90;5.43;;;;;;;51.89;12.75;100004.47;5094953;28;20039;-62
2023/08/20 07:48:37;;;;;;;6.95;5.25;;;;;;;52.42;12.65;100013.56;5094937;28;20055;-62
2023/08/20 07:51:03;;;;;;;5.47;5.07;;;;;;;52.67;12.47;100014.38;5077296;28;20028;-63
2023/08/20 07:53:29;;;;;;;7.65;5.40;;;;;;;52.51;12.50;100008.25;5094592;28;20032;-63
2023/08/20 07:55:55;;;;;;;5.90;5.40;;;;;;;52.17;12.58;100002.91;5095166;28;20039;-64
2023/08/20 07:58:21;;;;;;;5.93;5.22;;;;;;;51.83;12.68;99999.13;5094728;28;20032;-63
2023/08/20 08:00:46;;;;;;;5.03;4.63;;;;;;;51.70;12.88;99995.03;5076808;28;20437;-63
2023/08/20 08:03:14;;;;;;;5.32;4.75;;;;;;;51.90;12.21;99997.53;5094987;28;20054;-61
2023/08/20 08:05:50;;;;;;;6.75;4.95;;;;;;;52.46;12.53;100006.66;5094599;28;20024;-63
2023/08/20 08:08:16;;;;;;;5.50;5.10;;;;;;;51.96;12.52;99995.91;5094031;28;20036;-63
2023/08/20 08:10:44;;;;;;;5.32;4.82;;;;;;;51.47;12.93;99992.47;5094385;28;20481;-62
2023/08/20 08:13:15;;;;;;;5.03;4.47;;;;;;;49.87;13.96;99985.50;5094590;28;20043;-62
2023/08/20 08:15:40;;;;;;;9.77;4.70;;;;;;;47.22;16.19;99972.41;5094289;28;20047;-63
2023/08/20 08:18:07;;;;;;;6.82;3.78;;;;;;;44.71;18.72;99983.56;5094391;28;20085;-64
2023/08/20 08:20:33;;;;;;;4.70;4.30;;;;;;;42.18;21.00;99964.97;5094696;28;20036;-63
2023/08/20 08:23:00;;;;;;;6.50;4.40;;;;;;;40.27;23.26;99963.13;5094240;28;20024;-62
2023/08/20 08:25:25;;;;;;;5.13;3.90;;;;;;;38.56;25.51;99958.50;5094031;28;20417;-61
2023/08/20 08:27:51;;;;;;;5.53;4.50;;;;;;;37.05;27.69;99959.97;5095268;28;20103;-63
2023/08/20 08:30:16;;;;;;;7.97;4.40;;;;;;;35.76;29.50;99950.88;5094448;28;20036;-63
2023/08/20 08:32:42;;;;;;;4.90;4.50;;;;;;;34.86;31.13;99952.72;5093751;28;20020;-62
2023/08/20 08:35:08;;;;;;;6.97;4.78;;;;;;;33.86;31.79;99915.06;5093899;28;20028;-62
2023/08/20 08:37:33;;;;;;;5.15;4.68;;;;;;;33.37;33.60;99952.41;5094405;28;20054;-64
2023/08/20 08:39:59;;;;;;;5.95;4.45;;;;;;;32.79;34.89;99950.53;5093564;28;20027;-62
2023/08/20 08:42:25;;;;;;;5.20;4.70;;;;;;;32.36;35.38;99939.47;5094127;28;20176;-62
2023/08/20 08:44:51;;;;;;;5.78;4.55;;;;;;;32.05;35.71;99931.75;5094236;28;20028;-62
2023/08/20 08:47:18;;;;;;;6.75;4.90;;;;;;;31.83;35.91;99942.91;5094349;28;20801;-63
2023/08/20 08:49:46;;;;;;;6.57;5.05;;;;;;;31.39;37.36;99915.34;5094059;28;20043;-63
2023/08/20 08:52:12;;;;;;;5.90;5.13;;;;;;;31.14;37.88;99903.69;5093499;28;20027;-61
2023/08/20 08:54:38;;;;;;;6.53;5.30;;;;;;;30.97;37.80;99936.94;5092895;28;20520;-62
2023/08/20 08:57:04;;;;;;;5.35;4.85;;;;;;;30.73;38.57;99945.50;5093794;28;20115;-63
2023/08/20 08:59:30;;;;;;;8.85;5.45;;;;;;;30.58;40.45;99936.94;5093528;28;20020;-61
2023/08/20 09:01:56;;;;;;;6.40;5.03;;;;;;;30.58;39.39;99948.84;5093601;28;20024;-62
2023/08/20 09:04:23;;;;;;;7.03;4.72;;;;;;;30.59;39.69;99960.72;5093856;28;20028;-63
2023/08/20 09:06:54;;;;;;;6.50;5.22;;;;;;;30.66;39.44;99961.44;5094058;28;20370;-63
2023/08/20 09:09:21;;;;;;;6.32;5.10;;;;;;;30.70;39.60;99957.06;5093167;28;20036;-62
2023/08/20 09:11:48;;;;;;;9.43;4.25;;;;;;;30.77;38.01;99962.41;5093118;28;20065;-63
2023/08/20 09:14:29;;;;;;;5.28;4.53;;;;;;;30.90;37.96;99966.72;5093422;28;20347;-62
2023/08/20 09:17:01;;;;;;;6.15;5.20;;;;;;;30.40;38.67;99949.97;5094112;28;20051;-65
2023/08/20 09:19:46;;;;;;;8.15;5.25;;;;;;;30.22;39.04;99927.06;5092640;28;20035;-66
2023/08/20 09:22:12;;;;;;;7.35;5.22;;;;;;;30.17;40.10;99954.59;5092487;28;20024;-65
2023/08/20 09:24:45;;;;;;;6.88;4.65;;;;;;;30.27;39.91;99964.97;5093234;28;20469;-64
2023/08/20 09:27:12;;;;;;;5.43;4.93;;;;;;;30.14;40.49;99949.53;5091106;28;20032;-63
2023/08/20 09:29:46;;;;;;;5.65;5.15;;;;;;;30.14;39.85;99949.53;5087132;28;20039;-63
2023/08/20 09:32:16;;;;;;;7.57;4.90;;;;;;;30.16;40.44;99944.63;5091030;28;20035;-62
2023/08/20 09:34:42;;;;;;;7.47;5.50;;;;;;;29.99;40.60;99929.97;5090764;28;20358;-63
2023/08/20 09:37:10;;;;;;;6.75;5.50;;;;;;;29.89;41.44;99930.63;5090326;28;20051;-63
2023/08/20 09:39:36;;;;;;;9.65;5.20;;;;;;;29.67;41.00;99902.94;5091010;28;20506;-62
2023/08/20 09:42:03;;;;;;;5.32;4.82;;;;;;;29.90;40.59;99922.09;5090693;28;20481;-64
2023/08/20 09:44:36;;;;;;;5.70;5.10;;;;;;;30.02;40.78;99935.84;5091464;28;20051;-62
2023/08/20 09:47:04;;;;;;;5.55;5.05;;;;;;;30.03;40.64;99922.88;5092468;28;20110;-62
2023/08/20 09:49:37;;;;;;;5.82;5.22;;;;;;;30.05;41.54;99923.47;5092680;28;20343;-61
2023/08/20 09:52:04;;;;;;;5.28;4.88;;;;;;;30.10;39.78;99906.16;5092660;28;20081;-63
2023/08/20 09:55:06;;;;;;;6.28;5.25;;;;;;;30.32;39.39;99909.81;5092855;28;20031;-62
2023/08/20 09:57:39;;;;;;;7.53;5.40;;;;;;;30.35;39.94;99911.22;5092500;28;20350;-62
2023/08/20 10:00:09;;;;;;;15.93;5.22;;;;;;;30.29;39.49;99909.47;5092568;28;20036;-63
2023/08/20 10:02:35;;;;;;;11.57;5.05;;;;;;;30.27;40.13;99901.47;5072049;28;20024;-63
2023/08/20 10:05:04;;;;;;;9.35;5.80;;;;;;;30.18;40.47;99881.72;5072408;28;20032;-62
2023/08/20 10:07:32;;;;;;;9.98;5.88;;;;;;;30.46;40.67;99907.53;5072617;28;20063;-63
2023/08/20 10:10:01;;;;;;;6.45;5.28;;;;;;;30.40;40.65;99878.16;5072181;28;20371;-63
2023/08/20 10:12:30;;;;;;;8.50;5.65;;;;;;;30.71;39.62;99909.00;5072412;28;20497;-64
2023/08/20 10:15:00;;;;;;;6.72;4.93;;;;;;;30.90;39.92;99894.84;5073027;28;20123;-62
2023/08/20 10:17:29;;;;;;;8.32;5.60;;;;;;;30.79;39.26;99847.72;5090846;28;20449;-64
2023/08/20 10:19:58;;;;;;;5.90;5.20;;;;;;;31.26;38.48;99897.22;5091287;28;20465;-63
2023/08/20 10:22:33;;;;;;;5.55;4.93;;;;;;;31.43;38.11;99880.53;5092069;28;20361;-62
2023/08/20 10:25:00;;;;;;;;;;;;;;;31.91;37.49;99884.28;5093035;28;20082;-64
2023/08/20 10:27:26;;;;;;;5.38;4.90;;;;;;;31.63;37.88;99882.63;5091948;28;19977;-63
2023/08/20 10:29:55;;;;;;;5.82;5.32;;;;;;;31.64;37.66;99874.06;5074409;28;20254;-63
2023/08/20 10:32:46;;;;;;;5.65;5.10;;;;;;;31.75;37.59;99861.16;5092339;28;20093;-63
2023/08/20 10:35:12;;;;;;;6.03;5.47;;;;;;;31.54;38.31;99856.56;5076086;28;20442;-64
2023/08/20 10:37:39;;;;;;;6.63;5.30;;;;;;;31.36;37.69;99826.25;5091089;28;20115;-64
2023/08/20 10:40:06;;;;;;;8.63;4.90;;;;;;;31.52;38.55;99861.50;5092229;28;20047;-63
2023/08/20 10:42:32;;;;;;;6.32;5.65;;;;;;;31.44;38.48;99849.81;5092769;28;20024;-63
2023/08/20 10:45:05;;;;;;;5.70;5.10;;;;;;;31.45;38.62;99848.72;5092205;28;20035;-64
2023/08/20 10:47:50;;;;;;;7.68;5.40;;;;;;;31.32;38.17;99833.38;5092200;28;20415;-64
2023/08/20 10:50:17;;;;;;;8.20;5.55;;;;;;;31.00;39.34;99842.44;5091822;28;20032;-65
2023/08/20 10:52:54;;;;;;;6.38;5.40;;;;;;;31.00;39.87;99836.09;5092391;28;20118;-65
2023/08/20 10:55:23;;;;;;;7.68;5.00;;;;;;;30.95;39.78;99842.38;5091259;28;20036;-63
2023/08/20 10:57:56;;;;;;;8.32;6.53;;;;;;;31.15;40.06;99852.81;5094530;28;20036;-64
2023/08/20 11:00:22;;;;;;;13.35;7.22;;;;;;;31.15;39.68;99836.22;5096122;28;20031;-65
2023/08/20 11:02:49;;;;;;;6.10;5.60;;;;;;;31.24;39.13;99842.16;5095990;28;20024;-63
2023/08/20 11:05:21;;;;;;;6.35;5.10;;;;;;;31.24;38.60;99811.75;5095424;28;20055;-63
2023/08/20 11:07:47;;;;;;;7.55;4.93;;;;;;;31.46;38.80;99838.50;5095037;28;20031;-63
2023/08/20 11:10:14;;;;;;;6.03;4.90;;;;;;;31.50;38.60;99834.09;5095471;28;20044;-65
2023/08/20 11:12:42;;;;;;;5.28;4.75;;;;;;;31.58;37.74;99841.09;5096168;28;20027;-65
2023/08/20 11:15:09;;;;;;;5.57;5.07;;;;;;;31.47;37.69;99845.69;5095424;28;20079;-64
2023/08/20 11:17:34;;;;;;;5.90;4.75;;;;;;;31.36;38.45;99842.00;5079587;28;20457;-62
2023/08/20 11:20:01;;;;;;;7.30;5.45;;;;;;;31.16;38.65;99842.63;5094875;28;20024;-64